createdAt,value
2018-05-11T00:00:59.071Z,5.20
2018-05-11T00:03:26.903Z,5.50
2018-05-11T00:05:54.339Z,4.43
2018-05-11T00:08:22.171Z,5.03
2018-05-11T00:10:50.379Z,5.10
2018-05-11T00:13:17.803Z,5.10
2018-05-11T00:15:46.001Z,5.00
2018-05-11T00:18:13.827Z,5.53
2018-05-11T00:20:41.255Z,5.53
2018-05-11T00:23:08.704Z,5.47
2018-05-11T00:25:36.142Z,4.87
2018-05-11T00:28:03.570Z,5.10
2018-05-11T00:30:30.998Z,4.87
2018-05-11T00:32:58.439Z,5.10
2018-05-11T00:35:25.861Z,5.13
2018-05-11T00:37:53.691Z,5.20
2018-05-11T00:40:21.896Z,5.73
2018-05-11T00:42:49.314Z,5.27
2018-05-11T00:45:17.608Z,5.90
2018-05-11T00:47:44.951Z,5.70
2018-05-11T00:50:13.165Z,5.53
2018-05-11T00:52:40.595Z,4.93
2018-05-11T00:55:19.675Z,4.83
2018-05-11T00:57:47.883Z,5.77
2018-05-11T01:00:16.088Z,4.73
2018-05-11T01:02:43.527Z,5.23
2018-05-11T01:05:10.956Z,4.90
2018-05-11T01:07:38.390Z,4.37
2018-05-11T01:10:05.823Z,4.70
2018-05-11T01:12:33.650Z,4.80
2018-05-11T01:15:01.845Z,4.77
2018-05-11T01:17:29.279Z,5.10
2018-05-11T01:19:57.471Z,5.03
2018-05-11T01:22:24.901Z,4.80
2018-05-11T01:24:53.094Z,5.03
2018-05-11T01:27:20.527Z,4.50
2018-05-11T01:29:48.358Z,5.93
2018-05-11T01:32:16.187Z,5.03
2018-05-11T01:34:43.615Z,5.13
2018-05-11T01:37:11.819Z,4.90
2018-05-11T01:39:39.252Z,4.70
2018-05-11T01:42:07.458Z,5.40
2018-05-11T01:44:34.888Z,6.00
2018-05-11T01:47:03.074Z,5.73
2018-05-11T01:49:30.905Z,5.50
2018-05-11T01:51:59.843Z,5.43
2018-05-11T01:54:27.274Z,5.60
2018-05-11T01:56:55.473Z,6.10
2018-05-11T01:59:22.906Z,4.90
2018-05-11T02:01:50.326Z,5.67
2018-05-11T02:04:17.770Z,5.10
2018-05-11T02:06:45.208Z,5.90
2018-05-11T02:09:12.646Z,5.53
2018-05-11T02:11:46.791Z,6.17
2018-05-11T02:14:14.985Z,6.20
2018-05-11T02:16:43.183Z,5.57
2018-05-11T02:19:10.618Z,5.43
2018-05-11T02:21:38.052Z,5.57
2018-05-11T02:24:06.243Z,5.40
2018-05-11T02:26:33.671Z,5.83
2018-05-11T02:29:01.118Z,5.40
2018-05-11T02:31:28.542Z,5.50
2018-05-11T02:33:55.970Z,6.20
2018-05-11T02:36:23.394Z,6.00
2018-05-11T02:38:50.838Z,5.87
2018-05-11T02:41:18.254Z,5.33
2018-05-11T02:43:46.477Z,4.77
2018-05-11T02:46:14.307Z,5.57
2018-05-11T02:48:42.134Z,5.73
2018-05-11T02:51:09.567Z,5.10
2018-05-11T02:53:36.992Z,4.93
2018-05-11T02:56:04.424Z,5.23
2018-05-11T02:58:32.634Z,5.40
2018-05-11T03:01:00.070Z,4.70
2018-05-11T03:03:27.893Z,5.07
2018-05-11T03:05:55.327Z,5.17
2018-05-11T03:08:22.766Z,5.20
2018-05-11T03:10:50.601Z,4.90
2018-05-11T03:13:18.797Z,5.50
2018-05-11T03:15:46.227Z,5.63
2018-05-11T03:18:14.423Z,6.20
2018-05-11T03:20:42.627Z,6.60
2018-05-11T03:23:10.064Z,5.53
2018-05-11T03:25:37.507Z,5.90
2018-05-11T03:28:05.703Z,6.20
2018-05-11T03:30:33.150Z,6.03
2018-05-11T03:33:00.979Z,6.00
2018-05-11T03:35:29.173Z,5.73
2018-05-11T03:37:56.990Z,5.43
2018-05-11T03:40:24.826Z,5.60
2018-05-11T03:42:52.283Z,5.47
2018-05-11T03:45:19.727Z,5.93
2018-05-11T03:47:47.151Z,5.57
2018-05-11T03:50:15.350Z,5.97
2018-05-11T03:52:42.774Z,6.10
2018-05-11T03:55:10.978Z,5.17
2018-05-11T03:57:38.410Z,5.27
2018-05-11T04:00:06.649Z,5.27
2018-05-11T04:02:45.860Z,4.73
2018-05-11T04:05:25.235Z,4.87
2018-05-11T04:08:04.545Z,6.40
2018-05-11T04:10:31.983Z,4.90
2018-05-11T04:12:59.416Z,5.50
2018-05-11T04:15:26.845Z,5.30
2018-05-11T04:17:54.279Z,5.27
2018-05-11T04:20:21.715Z,5.30
2018-05-11T04:22:49.157Z,6.17
2018-05-11T04:25:16.588Z,7.33
2018-05-11T04:27:45.535Z,6.10
2018-05-11T04:30:13.013Z,6.40
2018-05-11T04:32:40.412Z,5.60
2018-05-11T04:35:08.238Z,5.63
2018-05-11T04:37:35.671Z,4.03
2018-05-11T04:40:03.095Z,4.20
2018-05-11T04:42:30.533Z,4.60
2018-05-11T04:44:57.951Z,5.10
2018-05-11T04:47:25.373Z,5.50
2018-05-11T04:49:52.802Z,4.17
2018-05-11T04:52:20.243Z,5.77
2018-05-11T04:54:48.446Z,5.50
2018-05-11T04:57:17.027Z,5.80
2018-05-11T04:59:44.452Z,5.93
2018-05-11T05:02:12.662Z,5.60
2018-05-11T05:04:40.094Z,5.90
2018-05-11T05:07:07.537Z,5.50
2018-05-11T05:09:35.744Z,5.40
2018-05-11T05:12:03.183Z,5.90
2018-05-11T05:14:30.698Z,5.80
2018-05-11T05:16:59.675Z,6.10
2018-05-11T05:19:27.878Z,6.63
2018-05-11T05:21:55.319Z,5.93
2018-05-11T05:24:22.774Z,6.50
2018-05-11T05:26:50.595Z,5.80
2018-05-11T05:29:18.028Z,4.77
2018-05-11T05:31:46.232Z,5.47
2018-05-11T05:34:13.719Z,5.17
2018-05-11T05:36:41.551Z,5.57
2018-05-11T05:39:09.079Z,5.20
2018-05-11T05:41:36.427Z,5.37
2018-05-11T05:44:04.262Z,5.47
2018-05-11T05:46:31.710Z,5.47
2018-05-11T05:48:59.147Z,5.60
2018-05-11T05:51:26.621Z,4.90
2018-05-11T05:53:54.056Z,6.07
2018-05-11T05:56:21.488Z,7.50
2018-05-11T05:58:48.932Z,7.57
2018-05-11T06:01:17.139Z,7.90
2018-05-11T06:03:44.975Z,9.07
2018-05-11T06:06:13.174Z,7.57
2018-05-11T06:08:40.604Z,6.80
2018-05-11T06:11:08.435Z,7.97
2018-05-11T06:13:35.883Z,7.40
2018-05-11T06:16:03.708Z,7.70
2018-05-11T06:18:31.146Z,7.60
2018-05-11T06:20:59.355Z,8.40
2018-05-11T06:23:26.808Z,8.10
2018-05-11T06:25:55.016Z,9.40
2018-05-11T06:28:22.467Z,8.13
2018-05-11T06:30:49.913Z,7.80
2018-05-11T06:33:17.368Z,8.10
2018-05-11T06:35:45.565Z,8.10
2018-05-11T06:38:13.006Z,8.97
2018-05-11T06:40:40.848Z,8.57
2018-05-11T06:43:09.425Z,8.90
2018-05-11T06:45:37.648Z,7.97
2018-05-11T06:48:05.841Z,8.50
2018-05-11T06:50:34.066Z,8.37
2018-05-11T06:53:01.909Z,8.07
2018-05-11T06:55:30.120Z,8.37
2018-05-11T06:57:57.550Z,7.60
2018-05-11T07:00:30.848Z,8.13
2018-05-11T07:02:58.292Z,7.93
2018-05-11T07:05:26.547Z,8.33
2018-05-11T07:07:54.041Z,7.80
2018-05-11T07:10:21.422Z,7.00
2018-05-11T07:12:48.865Z,7.87
2018-05-11T07:15:16.308Z,7.03
2018-05-11T07:17:44.146Z,7.23
2018-05-11T07:20:11.595Z,7.33
2018-05-11T07:22:39.037Z,7.27
2018-05-11T07:25:07.226Z,7.40
2018-05-11T07:27:34.662Z,6.80
2018-05-11T07:30:02.498Z,6.80
2018-05-11T07:32:29.951Z,6.73
2018-05-11T07:34:57.807Z,6.53
2018-05-11T07:37:25.235Z,6.13
2018-05-11T07:39:52.674Z,7.03
2018-05-11T07:42:20.103Z,6.90
2018-05-11T07:44:47.545Z,6.03
2018-05-11T07:47:14.967Z,6.70
2018-05-11T07:49:42.399Z,8.00
2018-05-11T07:52:09.839Z,8.13
2018-05-11T07:54:38.039Z,8.40
2018-05-11T07:57:05.487Z,10.00
2018-05-11T07:59:32.918Z,10.93
2018-05-11T08:02:00.759Z,10.33
2018-05-11T08:04:28.962Z,11.63
2018-05-11T08:06:56.402Z,11.43
2018-05-11T08:09:25.433Z,12.57
2018-05-11T08:11:54.856Z,11.10
2018-05-11T08:14:22.334Z,15.90
2018-05-11T08:16:49.736Z,17.93
2018-05-11T08:19:17.926Z,18.80
2018-05-11T08:21:45.458Z,19.30
2018-05-11T08:24:12.919Z,19.33
2018-05-11T08:26:41.196Z,21.37
2018-05-11T08:29:08.567Z,19.77
2018-05-11T08:31:36.015Z,18.67
2018-05-11T08:34:03.839Z,18.80
2018-05-11T08:36:31.278Z,19.33
2018-05-11T08:38:58.716Z,19.90
2018-05-11T08:41:26.172Z,19.30
2018-05-11T08:43:54.367Z,18.50
2018-05-11T08:46:21.865Z,19.60
2018-05-11T08:48:49.238Z,19.20
2018-05-11T08:51:16.678Z,19.40
2018-05-11T08:53:44.894Z,19.67
2018-05-11T08:56:12.344Z,19.63
2018-05-11T08:58:39.796Z,19.23
2018-05-11T09:01:07.230Z,18.90
2018-05-11T09:03:35.431Z,18.50
2018-05-11T09:06:04.003Z,17.10
2018-05-11T09:08:31.537Z,17.20
2018-05-11T09:10:58.895Z,19.57
2018-05-11T09:13:26.339Z,19.27
2018-05-11T09:15:54.543Z,18.40
2018-05-11T09:18:22.758Z,17.30
2018-05-11T09:20:50.197Z,17.77
2018-05-11T09:23:17.648Z,18.10
2018-05-11T09:25:45.083Z,17.50
2018-05-11T09:28:13.304Z,18.40
2018-05-11T09:30:41.139Z,18.53
2018-05-11T09:33:08.983Z,17.77
2018-05-11T09:35:36.419Z,18.00
2018-05-11T09:38:04.259Z,17.63
2018-05-11T09:40:31.711Z,16.23
2018-05-11T09:42:59.163Z,17.53
2018-05-11T09:45:26.602Z,17.43
2018-05-11T09:47:54.063Z,17.13
2018-05-11T09:50:21.499Z,15.50
2018-05-11T09:52:48.960Z,15.77
2018-05-11T09:55:16.397Z,15.77
2018-05-11T09:57:43.834Z,16.40
2018-05-11T10:00:12.048Z,14.83
2018-05-11T10:02:39.490Z,14.90
2018-05-11T10:05:07.326Z,15.10
2018-05-11T10:07:35.910Z,17.50
2018-05-11T10:10:04.114Z,14.00
2018-05-11T10:12:31.562Z,14.00
2018-05-11T10:14:59.011Z,14.13
2018-05-11T10:17:27.218Z,15.00
2018-05-11T10:19:55.079Z,15.73
2018-05-11T10:22:22.532Z,16.30
2018-05-11T10:24:49.973Z,14.30
2018-05-11T10:27:17.407Z,14.60
2018-05-11T10:29:45.620Z,14.57
2018-05-11T10:32:13.059Z,14.40
2018-05-11T10:34:40.502Z,16.10
2018-05-11T10:37:08.330Z,15.40
2018-05-11T10:39:35.784Z,15.33
2018-05-11T10:42:03.232Z,15.47
2018-05-11T10:44:30.677Z,17.13
2018-05-11T10:46:58.107Z,16.40
2018-05-11T10:49:25.571Z,15.40
2018-05-11T10:51:53.749Z,15.33
2018-05-11T10:54:22.336Z,15.73
2018-05-11T10:56:50.543Z,14.93
2018-05-11T10:59:18.113Z,16.30
2018-05-11T11:01:45.836Z,14.20
2018-05-11T11:04:14.411Z,14.33
2018-05-11T11:06:42.615Z,14.63
2018-05-11T11:09:10.060Z,15.70
2018-05-11T11:11:37.567Z,16.13
2018-05-11T11:14:06.147Z,16.70
2018-05-11T11:16:34.375Z,15.20
2018-05-11T11:19:01.810Z,16.00
2018-05-11T11:21:29.250Z,14.43
2018-05-11T11:23:57.081Z,17.73
2018-05-11T11:26:24.910Z,15.17
2018-05-11T11:28:52.347Z,15.33
2018-05-11T11:31:19.811Z,17.13
2018-05-11T11:33:47.220Z,15.40
2018-05-11T11:36:14.669Z,16.40
2018-05-11T11:38:42.099Z,15.20
2018-05-11T11:41:09.581Z,15.10
2018-05-11T11:43:37.385Z,16.63
2018-05-11T11:46:04.818Z,15.80
2018-05-11T11:48:33.031Z,14.90
2018-05-11T11:51:00.488Z,15.30
2018-05-11T11:53:28.325Z,15.30
2018-05-11T11:55:56.526Z,16.67
2018-05-11T11:58:23.976Z,16.50
2018-05-11T12:00:51.415Z,15.57
2018-05-11T12:03:18.923Z,14.97
2018-05-11T12:05:47.054Z,15.70
2018-05-11T12:08:14.500Z,14.97
2018-05-11T12:10:41.943Z,14.80
2018-05-11T12:13:09.378Z,14.60
2018-05-11T12:15:36.950Z,15.17
2018-05-11T12:18:05.160Z,14.43
2018-05-11T12:20:32.586Z,12.87
2018-05-11T12:23:00.790Z,11.77
2018-05-11T12:25:28.220Z,14.00
2018-05-11T12:27:56.059Z,12.03
2018-05-11T12:30:23.504Z,13.60
2018-05-11T12:32:50.949Z,13.40
2018-05-11T12:35:18.387Z,13.70
2018-05-11T12:37:46.596Z,14.00
2018-05-11T12:40:14.035Z,14.17
2018-05-11T12:42:41.486Z,15.00
2018-05-11T12:45:08.914Z,15.50
2018-05-11T12:47:36.355Z,13.40
2018-05-11T12:50:03.790Z,15.43
2018-05-11T12:52:31.242Z,15.97
2018-05-11T12:54:58.683Z,14.30
2018-05-11T12:57:26.148Z,13.80
2018-05-11T12:59:53.584Z,14.50
2018-05-11T13:02:21.043Z,14.57
2018-05-11T13:04:48.494Z,13.23
2018-05-11T13:07:15.993Z,13.10
2018-05-11T13:09:43.375Z,13.93
2018-05-11T13:12:10.823Z,11.87
2018-05-11T13:14:38.266Z,12.37
2018-05-11T13:17:06.475Z,13.30
2018-05-11T13:19:33.919Z,14.53
2018-05-11T13:22:01.363Z,14.80
2018-05-11T13:24:29.577Z,13.50
2018-05-11T13:26:57.018Z,13.40
2018-05-11T13:29:24.462Z,14.57
2018-05-11T13:31:52.686Z,14.40
2018-05-11T13:34:20.524Z,15.10
2018-05-11T13:36:47.975Z,14.80
2018-05-11T13:39:16.200Z,12.97
2018-05-11T13:41:43.636Z,13.50
2018-05-11T13:44:11.088Z,12.23
2018-05-11T13:46:39.288Z,14.50
2018-05-11T13:49:07.498Z,12.87
2018-05-11T13:51:34.932Z,12.70
2018-05-11T13:54:03.840Z,12.30
2018-05-11T13:56:31.314Z,12.80
2018-05-11T13:58:58.723Z,12.93
2018-05-11T14:01:26.158Z,13.20
2018-05-11T14:03:53.607Z,13.87
2018-05-11T14:06:21.055Z,15.47
2018-05-11T14:08:48.499Z,13.70
2018-05-11T14:11:16.335Z,12.93
2018-05-11T14:13:43.781Z,12.67
2018-05-11T14:16:11.978Z,12.90
2018-05-11T14:18:39.417Z,13.80
2018-05-11T14:21:06.852Z,14.50
2018-05-11T14:23:35.067Z,13.70
2018-05-11T14:26:02.915Z,13.33
2018-05-11T14:28:30.368Z,13.27
2018-05-11T14:30:57.801Z,12.53
2018-05-11T14:33:25.241Z,14.37
2018-05-11T14:35:52.671Z,14.03
2018-05-11T14:38:20.119Z,13.10
2018-05-11T14:40:47.551Z,13.57
2018-05-11T14:43:14.994Z,13.10
2018-05-11T14:45:43.938Z,13.57
2018-05-11T14:48:11.382Z,13.40
2018-05-11T14:50:39.582Z,14.13
2018-05-11T14:53:07.043Z,14.70
2018-05-11T14:55:34.490Z,14.77
2018-05-11T14:58:01.941Z,15.00
2018-05-11T15:00:29.788Z,15.33
2018-05-11T15:02:57.232Z,15.13
2018-05-11T15:05:24.675Z,14.83
2018-05-11T15:07:52.106Z,14.70
2018-05-11T15:10:20.691Z,14.40
2018-05-11T15:12:48.531Z,13.27
2018-05-11T15:15:15.970Z,14.00
2018-05-11T15:17:43.423Z,14.30
2018-05-11T15:20:10.865Z,12.50
2018-05-11T15:22:38.302Z,12.70
2018-05-11T15:25:06.148Z,12.07
2018-05-11T15:27:33.584Z,14.33
2018-05-11T15:30:01.030Z,14.93
2018-05-11T15:32:28.475Z,13.50
2018-05-11T15:34:56.323Z,14.20
2018-05-11T15:37:23.760Z,14.73
2018-05-11T15:39:51.201Z,14.13
2018-05-11T15:42:19.412Z,14.27
2018-05-11T15:44:46.863Z,15.27
2018-05-11T15:47:14.307Z,14.10
2018-05-11T15:49:41.756Z,14.77
2018-05-11T15:52:09.188Z,14.10
2018-05-11T15:54:36.626Z,13.33
2018-05-11T15:57:04.065Z,13.00
2018-05-11T15:59:31.518Z,12.67
2018-05-11T16:01:58.954Z,13.17
2018-05-11T16:04:27.524Z,13.60
2018-05-11T16:06:54.979Z,12.93
2018-05-11T16:09:22.412Z,14.20
2018-05-11T16:11:50.622Z,16.77
2018-05-11T16:14:18.088Z,16.00
2018-05-11T16:16:45.506Z,15.50
2018-05-11T16:19:13.719Z,13.93
2018-05-11T16:21:41.163Z,11.60
2018-05-11T16:24:08.606Z,14.40
2018-05-11T16:26:36.046Z,12.90
2018-05-11T16:29:04.257Z,14.57
2018-05-11T16:31:32.096Z,13.10
2018-05-11T16:33:59.526Z,13.20
2018-05-11T16:36:27.744Z,14.10
2018-05-11T16:38:55.183Z,13.70
2018-05-11T16:41:22.631Z,13.33
2018-05-11T16:43:50.066Z,11.77
2018-05-11T16:46:17.510Z,12.70
2018-05-11T16:48:44.958Z,12.80
2018-05-11T16:51:12.438Z,13.67
2018-05-11T16:53:39.856Z,12.93
2018-05-11T16:56:07.295Z,14.13
2018-05-11T16:58:34.749Z,14.87
2018-05-11T17:01:02.195Z,13.07
2018-05-11T17:03:29.628Z,13.07
2018-05-11T17:05:57.848Z,13.17
2018-05-11T17:08:25.321Z,13.67
2018-05-11T17:10:52.770Z,14.50
2018-05-11T17:13:20.613Z,12.57
2018-05-11T17:15:48.047Z,12.37
2018-05-11T17:18:15.499Z,14.30
2018-05-11T17:20:43.348Z,13.30
2018-05-11T17:23:10.818Z,13.43
2018-05-11T17:25:39.247Z,13.63
2018-05-11T17:28:06.698Z,13.33
2018-05-11T17:30:34.144Z,14.30
2018-05-11T17:33:02.732Z,14.73
2018-05-11T17:35:30.178Z,13.93
2018-05-11T17:37:58.011Z,13.60
2018-05-11T17:40:26.219Z,13.60
2018-05-11T17:42:53.675Z,13.13
2018-05-11T17:45:21.110Z,13.40
2018-05-11T17:47:48.550Z,12.20
2018-05-11T17:50:16.759Z,13.00
2018-05-11T17:52:44.219Z,13.80
2018-05-11T17:55:11.659Z,12.73
2018-05-11T17:57:39.111Z,12.47
2018-05-11T18:00:06.547Z,13.07
2018-05-11T18:02:34.766Z,13.13
2018-05-11T18:05:03.326Z,12.80
2018-05-11T18:07:31.169Z,13.47
2018-05-11T18:09:59.766Z,12.47
2018-05-11T18:12:28.568Z,13.23
2018-05-11T18:14:56.752Z,12.87
2018-05-11T18:17:24.206Z,12.77
2018-05-11T18:19:51.638Z,13.70
2018-05-11T18:22:19.079Z,13.50
2018-05-11T18:24:47.296Z,14.10
2018-05-11T18:27:14.732Z,12.97
2018-05-11T18:29:42.563Z,14.50
2018-05-11T18:32:10.004Z,14.50
2018-05-11T18:34:38.967Z,14.40
2018-05-11T18:37:06.419Z,13.83
2018-05-11T18:39:34.682Z,12.37
2018-05-11T18:42:02.064Z,13.90
2018-05-11T18:44:29.515Z,13.97
2018-05-11T18:46:57.799Z,13.93
2018-05-11T18:49:26.693Z,13.73
2018-05-11T18:51:54.136Z,12.17
2018-05-11T18:54:22.267Z,14.70
2018-05-11T18:56:49.409Z,15.50
2018-05-11T18:59:17.248Z,15.77
2018-05-11T19:01:44.767Z,14.90
2018-05-11T19:04:12.903Z,17.77
2018-05-11T19:06:41.120Z,15.73
2018-05-11T19:09:08.558Z,16.60
2018-05-11T19:11:36.003Z,16.13
2018-05-11T19:14:03.443Z,16.83
2018-05-11T19:16:31.659Z,16.17
2018-05-11T19:18:59.114Z,16.43
2018-05-11T19:21:26.550Z,15.60
2018-05-11T19:23:53.992Z,16.17
2018-05-11T19:26:22.205Z,15.00
2018-05-11T19:28:50.028Z,13.90
2018-05-11T19:31:18.247Z,13.80
2018-05-11T19:33:46.071Z,13.90
2018-05-11T19:36:14.332Z,13.87
2018-05-11T19:38:42.549Z,14.10
2018-05-11T19:41:11.959Z,13.73
2018-05-11T19:43:40.904Z,13.60
2018-05-11T19:46:09.123Z,13.43
2018-05-11T19:48:37.707Z,14.00
2018-05-11T19:51:05.917Z,14.27
2018-05-11T19:53:33.357Z,14.10
2018-05-11T19:56:01.304Z,13.93
2018-05-11T19:58:29.050Z,14.83
2018-05-11T20:00:56.890Z,14.67
2018-05-11T20:03:25.104Z,14.90
2018-05-11T20:05:53.700Z,13.53
2018-05-11T20:08:21.147Z,14.13
2018-05-11T20:10:48.664Z,14.50
2018-05-11T20:13:17.184Z,14.20
2018-05-11T20:15:45.766Z,14.43
2018-05-11T20:18:13.317Z,15.03
2018-05-11T20:20:41.445Z,15.03
2018-05-11T20:23:09.658Z,14.47
2018-05-11T20:25:37.114Z,13.87
2018-05-11T20:28:04.561Z,13.20
2018-05-11T20:30:33.134Z,13.87
2018-05-11T20:33:01.354Z,14.70
2018-05-11T20:35:29.926Z,14.80
2018-05-11T20:37:57.762Z,13.97
2018-05-11T20:40:25.205Z,15.37
2018-05-11T20:42:53.418Z,16.00
2018-05-11T20:45:22.012Z,16.23
2018-05-11T20:47:49.656Z,15.70
2018-05-11T20:50:17.116Z,16.07
2018-05-11T20:52:44.947Z,15.80
2018-05-11T20:55:13.159Z,15.43
2018-05-11T20:57:40.808Z,16.43
2018-05-11T21:00:08.243Z,15.80
2018-05-11T21:02:36.460Z,17.40
2018-05-11T21:05:04.112Z,15.73
2018-05-11T21:07:31.607Z,17.43
2018-05-11T21:09:59.443Z,15.90
2018-05-11T21:12:26.882Z,17.00
2018-05-11T21:14:54.323Z,16.80
2018-05-11T21:17:21.769Z,16.73
2018-05-11T21:19:49.980Z,15.73
2018-05-11T21:22:17.421Z,14.80
2018-05-11T21:24:44.871Z,15.97
2018-05-11T21:27:12.411Z,16.67
2018-05-11T21:29:40.158Z,15.33
2018-05-11T21:32:07.601Z,16.90
2018-05-11T21:34:35.083Z,16.17
2018-05-11T21:37:02.514Z,17.17
2018-05-11T21:39:29.957Z,17.70
2018-05-11T21:41:57.392Z,16.70
2018-05-11T21:44:24.844Z,16.53
2018-05-11T21:46:52.294Z,17.40
2018-05-11T21:49:19.739Z,16.60
2018-05-11T21:51:47.182Z,16.27
2018-05-11T21:54:15.391Z,17.00
2018-05-11T21:56:43.594Z,17.40
2018-05-11T21:59:11.414Z,16.80
2018-05-11T22:01:38.924Z,16.93
2018-05-11T22:04:06.464Z,17.63
2018-05-11T22:06:33.949Z,17.67
2018-05-11T22:09:01.482Z,17.23
2018-05-11T22:11:28.935Z,17.87
2018-05-11T22:13:56.379Z,17.43
2018-05-11T22:16:23.817Z,18.63
2018-05-11T22:18:51.263Z,18.27
2018-05-11T22:21:19.047Z,18.97
2018-05-11T22:23:46.555Z,19.50
2018-05-11T22:26:14.014Z,19.27
2018-05-11T22:28:42.309Z,18.40
2018-05-11T22:31:09.772Z,19.27
2018-05-11T22:33:37.251Z,19.33
2018-05-11T22:36:04.685Z,17.97
2018-05-11T22:38:32.137Z,18.30
2018-05-11T22:41:00.358Z,18.23
2018-05-11T22:43:27.869Z,21.20
2018-05-11T22:45:55.357Z,19.43
2018-05-11T22:48:22.856Z,19.57
2018-05-11T22:50:51.090Z,19.57
2018-05-11T22:53:18.615Z,19.33
2018-05-11T22:55:46.053Z,18.43
2018-05-11T22:58:14.263Z,20.37
2018-05-11T23:00:41.698Z,18.77
2018-05-11T23:03:09.913Z,18.30
2018-05-11T23:05:37.358Z,20.47
2018-05-11T23:08:04.811Z,19.00
2018-05-11T23:10:32.261Z,20.27
2018-05-11T23:12:59.713Z,20.40
2018-05-11T23:15:27.131Z,19.80
2018-05-11T23:17:54.596Z,20.80
2018-05-11T23:20:22.024Z,22.40
2018-05-11T23:22:49.471Z,19.50
2018-05-11T23:25:16.923Z,19.90
2018-05-11T23:27:45.752Z,19.10
2018-05-11T23:30:13.168Z,20.93
2018-05-11T23:32:40.616Z,20.90
2018-05-11T23:35:08.075Z,21.03
2018-05-11T23:37:35.518Z,20.50
2018-05-11T23:40:02.976Z,21.67
2018-05-11T23:42:30.406Z,20.70
2018-05-11T23:44:57.848Z,20.17
2018-05-11T23:47:26.047Z,20.87
2018-05-11T23:49:53.883Z,19.60
2018-05-11T23:52:22.099Z,23.33
2018-05-11T23:54:49.551Z,21.27
2018-05-11T23:57:16.983Z,20.83
2018-05-11T23:59:44.422Z,20.77
